Kastav — 9AA6417 — position and weather

sailwx.info

Track history (hours):
 
Tides and Currents Weather Stations Pressure Air Temp Water Temp Dewpoint Dewpoint Depression Visibility Wind Speed Wind Dir Waves Ship Positions

Kastav

Last reported at 2018-May-05 23:31 UTC. Time now 2018-Jun-19 18:30 UTC.
Position S 24°47' W 046°31'.
Warning: this ship's position is 44 days out of date.

Length 195 m; draft 8 m.

Type: Other ship. MMSI: 238257000.

Date/timePositionNaut miles runAvg speedWind from/ knotsBaromVisibWave heightAir tempDewpointWater temp
2018-May-05 23:31S 24°47' W 046°31'313.1
2018-May-05 23:17S 24°44' W 046°30'413.1
2018-May-05 23:00S 24°40' W 046°29'713.1
2018-May-05 22:30S 24°34' W 046°26'713.0
2018-May-05 21:59S 24°28' W 046°24'612.7
2018-May-05 21:30S 24°22' W 046°22'612.5
2018-May-05 21:00S 24°16' W 046°23'612.6
2018-May-05 20:30S 24°09' W 046°23'612.1
2018-May-05 20:00S 24°03' W 046°22'4 9.1
2018-May-05 19:30S 23°60' W 046°20'  
2018-Apr-27 17:50S 23°59' W 046°17'3 8.2
2018-Apr-27 17:30S 24°00' W 046°20'3 6.2
2018-Apr-27 16:58S 24°03' W 046°21'1 3.1
2018-Apr-27 16:30S 24°05' W 046°22'2 3.8
2018-Apr-27 16:00S 24°07' W 046°23'3 6.4
2018-Apr-27 15:30S 24°08' W 046°20'0 0.4
2018-Apr-27 14:59S 24°08' W 046°20'0 0.0
2018-Apr-27 14:14S 24°08' W 046°20'0 0.0
2018-Apr-27 13:28S 24°08' W 046°20'0 0.0
2018-Apr-27 12:52S 24°08' W 046°20'0 0.0
2018-Apr-27 12:28S 24°08' W 046°20'0 0.0
2018-Apr-27 11:58S 24°08' W 046°20'0 0.0
2018-Apr-27 11:22S 24°08' W 046°20'0 0.0
2018-Apr-27 10:56S 24°08' W 046°20'0 0.0
2018-Apr-27 10:28S 24°08' W 046°20'0 0.0
2018-Apr-27 09:56S 24°08' W 046°20'0 0.0
2018-Apr-27 09:22S 24°08' W 046°20'0 0.0
2018-Apr-27 08:58S 24°08' W 046°20'0 0.0
2018-Apr-27 08:22S 24°08' W 046°20'0 0.0
2018-Apr-27 07:58S 24°08' W 046°20'0 0.0
2018-Apr-27 07:22S 24°08' W 046°20'0 0.0
2018-Apr-27 06:58S 24°08' W 046°20'0 0.0
2018-Apr-27 06:29S 24°08' W 046°20'0 0.1
2018-Apr-27 05:59S 24°08' W 046°20'0 0.0
2018-Apr-27 05:29S 24°08' W 046°20'0 0.0
2018-Apr-27 04:53S 24°08' W 046°20'0 0.1
2018-Apr-27 04:23S 24°08' W 046°20'0 0.0
2018-Apr-27 03:59S 24°08' W 046°20'0 0.0
2018-Apr-27 03:23S 24°08' W 046°20'0 0.0
2018-Apr-27 02:53S 24°08' W 046°20'0 0.0
2018-Apr-27 02:29S 24°08' W 046°20'0 0.0
2018-Apr-27 01:56S 24°08' W 046°20'0 0.0
2018-Apr-27 01:29S 24°08' W 046°20'0 0.0
2018-Apr-27 00:53S 24°08' W 046°20'0 0.0
2018-Apr-27 00:26S 24°08' W 046°20'0 0.0
2018-Apr-26 23:59S 24°08' W 046°20'0 0.0
2018-Apr-26 23:29S 24°08' W 046°20'0 0.0
2018-Apr-26 22:59S 24°08' W 046°20'0 0.1
2018-Apr-26 22:29S 24°08' W 046°20'0 0.1
2018-Apr-26 21:59S 24°08' W 046°20'0 0.0
2018-Apr-26 21:29S 24°08' W 046°20'0 0.1
2018-Apr-26 20:47S 24°08' W 046°20'0 0.0
2018-Apr-26 20:23S 24°08' W 046°20'0 0.1
2018-Apr-26 19:53S 24°08' W 046°20'0 0.1
2018-Apr-26 19:23S 24°08' W 046°20'0 0.0
2018-Apr-26 18:59S 24°08' W 046°20'0 0.1
2018-Apr-26 18:23S 24°08' W 046°20'0 0.1
2018-Apr-26 17:59S 24°08' W 046°20'0 0.0
2018-Apr-26 17:30S 24°08' W 046°20'0 0.0
2018-Apr-26 16:54S 24°08' W 046°20'0 0.0
2018-Apr-26 16:30S 24°08' W 046°20'0 0.0
2018-Apr-26 16:01S 24°08' W 046°20'0 0.0
2018-Apr-26 15:30S 24°08' W 046°20'0 0.1
2018-Apr-26 15:00S 24°08' W 046°20'0 0.0
2018-Apr-26 14:30S 24°08' W 046°20'0 0.0
2018-Apr-26 14:00S 24°08' W 046°20'0 0.0
2018-Apr-26 13:25S 24°08' W 046°20'0 0.0
2018-Apr-26 13:01S 24°08' W 046°20'0 0.0
2018-Apr-26 12:13S 24°08' W 046°20'0 0.1
2018-Apr-26 12:01S 24°08' W 046°20'0 0.1
2018-Apr-26 11:19S 24°08' W 046°20'0 0.0
2018-Apr-26 10:56S 24°08' W 046°20'0 0.0
2018-Apr-26 10:31S 24°08' W 046°20'0 0.0
2018-Apr-26 10:00S 24°08' W 046°20'0 0.0
2018-Apr-26 09:26S 24°08' W 046°20'0 0.0
2018-Apr-26 08:55S 24°08' W 046°20'0 0.0
2018-Apr-26 08:25S 24°08' W 046°20'0 0.0
2018-Apr-26 07:55S 24°08' W 046°20'0 0.0
2018-Apr-26 07:25S 24°08' W 046°20'0 0.1
2018-Apr-26 06:49S 24°08' W 046°20'0 0.1
2018-Apr-26 06:26S 24°08' W 046°20'0 0.1
2018-Apr-26 05:55S 24°08' W 046°20'0 0.0
2018-Apr-26 05:25S 24°08' W 046°20'0 0.0
2018-Apr-26 04:49S 24°08' W 046°20'0 0.0
2018-Apr-26 04:25S 24°08' W 046°20'0 0.0
2018-Apr-26 03:56S 24°08' W 046°20'0 0.0
2018-Apr-26 03:25S 24°08' W 046°20'0 0.0
2018-Apr-26 02:55S 24°08' W 046°20'0 0.0
2018-Apr-26 02:25S 24°08' W 046°20'0 0.0
2018-Apr-26 01:55S 24°08' W 046°20'0 0.0
2018-Apr-26 01:25S 24°08' W 046°20'0 0.0
2018-Apr-26 00:56S 24°08' W 046°20'0 0.0
2018-Apr-26 00:25S 24°08' W 046°20'0 0.1
2018-Apr-25 23:55S 24°08' W 046°20'  
Track history (hours):
 
Tides and Currents Weather Stations Pressure Air Temp Water Temp Dewpoint Dewpoint Depression Visibility Wind Speed Wind Dir Waves Ship Positions

Kastav

Last reported at 2018-May-05 23:31 UTC. Time now 2018-Jun-19 18:30 UTC.
Position S 24°47' W 046°31'.
Warning: this ship's position is 44 days out of date.

Length 195 m; draft 8 m.

Type: Other ship. MMSI: 238257000.

Date/timePositionNaut miles runAvg speedWind from/ knotsBaromVisibWave heightAir tempDewpointWater temp
2018-May-05 23:31S 24°47' W 046°31'313.1
2018-May-05 23:17S 24°44' W 046°30'413.1
2018-May-05 23:00S 24°40' W 046°29'713.1
2018-May-05 22:30S 24°34' W 046°26'713.0
2018-May-05 21:59S 24°28' W 046°24'612.7
2018-May-05 21:30S 24°22' W 046°22'612.5
2018-May-05 21:00S 24°16' W 046°23'612.6
2018-May-05 20:30S 24°09' W 046°23'612.1
2018-May-05 20:00S 24°03' W 046°22'4 9.1
2018-May-05 19:30S 23°60' W 046°20'  
2018-Apr-27 17:50S 23°59' W 046°17'3 8.2
2018-Apr-27 17:30S 24°00' W 046°20'3 6.2
2018-Apr-27 16:58S 24°03' W 046°21'1 3.1
2018-Apr-27 16:30S 24°05' W 046°22'2 3.8
2018-Apr-27 16:00S 24°07' W 046°23'3 6.4
2018-Apr-27 15:30S 24°08' W 046°20'0 0.4
2018-Apr-27 14:59S 24°08' W 046°20'0 0.0
2018-Apr-27 14:14S 24°08' W 046°20'0 0.0
2018-Apr-27 13:28S 24°08' W 046°20'0 0.0
2018-Apr-27 12:52S 24°08' W 046°20'0 0.0
2018-Apr-27 12:28S 24°08' W 046°20'0 0.0
2018-Apr-27 11:58S 24°08' W 046°20'0 0.0
2018-Apr-27 11:22S 24°08' W 046°20'0 0.0
2018-Apr-27 10:56S 24°08' W 046°20'0 0.0
2018-Apr-27 10:28S 24°08' W 046°20'0 0.0
2018-Apr-27 09:56S 24°08' W 046°20'0 0.0
2018-Apr-27 09:22S 24°08' W 046°20'0 0.0
2018-Apr-27 08:58S 24°08' W 046°20'0 0.0
2018-Apr-27 08:22S 24°08' W 046°20'0 0.0
2018-Apr-27 07:58S 24°08' W 046°20'0 0.0
2018-Apr-27 07:22S 24°08' W 046°20'0 0.0
2018-Apr-27 06:58S 24°08' W 046°20'0 0.0
2018-Apr-27 06:29S 24°08' W 046°20'0 0.1
2018-Apr-27 05:59S 24°08' W 046°20'0 0.0
2018-Apr-27 05:29S 24°08' W 046°20'0 0.0
2018-Apr-27 04:53S 24°08' W 046°20'0 0.1
2018-Apr-27 04:23S 24°08' W 046°20'0 0.0
2018-Apr-27 03:59S 24°08' W 046°20'0 0.0
2018-Apr-27 03:23S 24°08' W 046°20'0 0.0
2018-Apr-27 02:53S 24°08' W 046°20'0 0.0
2018-Apr-27 02:29S 24°08' W 046°20'0 0.0
2018-Apr-27 01:56S 24°08' W 046°20'0 0.0
2018-Apr-27 01:29S 24°08' W 046°20'0 0.0
2018-Apr-27 00:53S 24°08' W 046°20'0 0.0
2018-Apr-27 00:26S 24°08' W 046°20'0 0.0
2018-Apr-26 23:59S 24°08' W 046°20'0 0.0
2018-Apr-26 23:29S 24°08' W 046°20'0 0.0
2018-Apr-26 22:59S 24°08' W 046°20'0 0.1
2018-Apr-26 22:29S 24°08' W 046°20'0 0.1
2018-Apr-26 21:59S 24°08' W 046°20'0 0.0
2018-Apr-26 21:29S 24°08' W 046°20'0 0.1
2018-Apr-26 20:47S 24°08' W 046°20'0 0.0
2018-Apr-26 20:23S 24°08' W 046°20'0 0.1
2018-Apr-26 19:53S 24°08' W 046°20'0 0.1
2018-Apr-26 19:23S 24°08' W 046°20'0 0.0
2018-Apr-26 18:59S 24°08' W 046°20'0 0.1
2018-Apr-26 18:23S 24°08' W 046°20'0 0.1
2018-Apr-26 17:59S 24°08' W 046°20'0 0.0
2018-Apr-26 17:30S 24°08' W 046°20'0 0.0
2018-Apr-26 16:54S 24°08' W 046°20'0 0.0
2018-Apr-26 16:30S 24°08' W 046°20'0 0.0
2018-Apr-26 16:01S 24°08' W 046°20'0 0.0
2018-Apr-26 15:30S 24°08' W 046°20'0 0.1
2018-Apr-26 15:00S 24°08' W 046°20'0 0.0
2018-Apr-26 14:30S 24°08' W 046°20'0 0.0
2018-Apr-26 14:00S 24°08' W 046°20'0 0.0
2018-Apr-26 13:25S 24°08' W 046°20'0 0.0
2018-Apr-26 13:01S 24°08' W 046°20'0 0.0
2018-Apr-26 12:13S 24°08' W 046°20'0 0.1
2018-Apr-26 12:01S 24°08' W 046°20'0 0.1
2018-Apr-26 11:19S 24°08' W 046°20'0 0.0
2018-Apr-26 10:56S 24°08' W 046°20'0 0.0
2018-Apr-26 10:31S 24°08' W 046°20'0 0.0
2018-Apr-26 10:00S 24°08' W 046°20'0 0.0
2018-Apr-26 09:26S 24°08' W 046°20'0 0.0
2018-Apr-26 08:55S 24°08' W 046°20'0 0.0
2018-Apr-26 08:25S 24°08' W 046°20'0 0.0
2018-Apr-26 07:55S 24°08' W 046°20'0 0.0
2018-Apr-26 07:25S 24°08' W 046°20'0 0.1
2018-Apr-26 06:49S 24°08' W 046°20'0 0.1
2018-Apr-26 06:26S 24°08' W 046°20'0 0.1
2018-Apr-26 05:55S 24°08' W 046°20'0 0.0
2018-Apr-26 05:25S 24°08' W 046°20'0 0.0
2018-Apr-26 04:49S 24°08' W 046°20'0 0.0
2018-Apr-26 04:25S 24°08' W 046°20'0 0.0
2018-Apr-26 03:56S 24°08' W 046°20'0 0.0
2018-Apr-26 03:25S 24°08' W 046°20'0 0.0
2018-Apr-26 02:55S 24°08' W 046°20'0 0.0
2018-Apr-26 02:25S 24°08' W 046°20'0 0.0
2018-Apr-26 01:55S 24°08' W 046°20'0 0.0
2018-Apr-26 01:25S 24°08' W 046°20'0 0.0
2018-Apr-26 00:56S 24°08' W 046°20'0 0.0
2018-Apr-26 00:25S 24°08' W 046°20'0 0.1
2018-Apr-25 23:55S 24°08' W 046°20'  

Dump ship's entire track history